Weather at Charlottesville Albemarle Airport

Public forecast

Using degrees Fahrenheit for public forecast. Weather courtesy of forecast.io.

Current aviation weather report (METAR) for Charlottesville Albemarle Airport

Retrieved 2020/09/30 07:53 UTC (42 minutes ago):

KCHO 300753Z AUTO 19004KT 10SM CLR 13/12 A2975 RMK AO2 SLP068 T01330117

Aviation forecast (TAF) for Charlottesville Albemarle Airport

Retrieved 2020/09/30 06:45 UTC (2 hours ago):

TAF KCHO 300542Z 3006/0106 00000KT P6SM FEW004 SCT007 OVC060 FM300900 00000KT P6SM SCT250 FM301600 22005KT P6SM SKC